sensor_id;sensor_type;location;lat;lon;timestamp;P1;durP1;ratioP1;P2;durP2;ratioP2
24485;SDS011;13449;49.374;8.584;2024-02-21T00:00:56;16.48;;;3.92;;
24485;SDS011;13449;49.374;8.584;2024-02-21T00:03:22;13.55;;;4.35;;
24485;SDS011;13449;49.374;8.584;2024-02-21T00:05:49;24.35;;;4.35;;
24485;SDS011;13449;49.374;8.584;2024-02-21T00:08:15;13.93;;;4.32;;
24485;SDS011;13449;49.374;8.584;2024-02-21T00:10:42;22.13;;;3.67;;
24485;SDS011;13449;49.374;8.584;2024-02-21T00:13:09;20.42;;;4.60;;
24485;SDS011;13449;49.374;8.584;2024-02-21T00:15:36;9.68;;;3.08;;
24485;SDS011;13449;49.374;8.584;2024-02-21T00:18:03;10.45;;;2.75;;
24485;SDS011;13449;49.374;8.584;2024-02-21T00:20:30;9.38;;;3.65;;
24485;SDS011;13449;49.374;8.584;2024-02-21T00:22:59;15.13;;;3.70;;
24485;SDS011;13449;49.374;8.584;2024-02-21T00:25:26;9.15;;;4.13;;
24485;SDS011;13449;49.374;8.584;2024-02-21T00:27:52;10.27;;;3.17;;
24485;SDS011;13449;49.374;8.584;2024-02-21T00:30:20;17.98;;;3.05;;
24485;SDS011;13449;49.374;8.584;2024-02-21T00:32:47;11.02;;;3.53;;
24485;SDS011;13449;49.374;8.584;2024-02-21T00:35:14;16.73;;;3.08;;
24485;SDS011;13449;49.374;8.584;2024-02-21T00:37:43;14.00;;;4.35;;
24485;SDS011;13449;49.374;8.584;2024-02-21T00:40:10;11.20;;;3.38;;
24485;SDS011;13449;49.374;8.584;2024-02-21T00:42:39;18.35;;;3.38;;
24485;SDS011;13449;49.374;8.584;2024-02-21T00:45:05;25.83;;;4.10;;
24485;SDS011;13449;49.374;8.584;2024-02-21T00:47:33;9.05;;;2.63;;
24485;SDS011;13449;49.374;8.584;2024-02-21T00:50:01;7.13;;;2.88;;
24485;SDS011;13449;49.374;8.584;2024-02-21T00:52:35;19.60;;;4.00;;
24485;SDS011;13449;49.374;8.584;2024-02-21T00:55:01;10.70;;;2.63;;
24485;SDS011;13449;49.374;8.584;2024-02-21T00:57:28;13.63;;;3.25;;
24485;SDS011;13449;49.374;8.584;2024-02-21T00:59:54;16.73;;;3.53;;
24485;SDS011;13449;49.374;8.584;2024-02-21T01:02:23;22.73;;;3.60;;
24485;SDS011;13449;49.374;8.584;2024-02-21T01:04:50;16.45;;;3.35;;
24485;SDS011;13449;49.374;8.584;2024-02-21T01:07:16;16.02;;;3.45;;
24485;SDS011;13449;49.374;8.584;2024-02-21T01:09:43;20.48;;;5.03;;
24485;SDS011;13449;49.374;8.584;2024-02-21T01:12:10;7.80;;;3.08;;
24485;SDS011;13449;49.374;8.584;2024-02-21T01:14:36;25.50;;;3.58;;
24485;SDS011;13449;49.374;8.584;2024-02-21T01:17:03;14.80;;;3.40;;
24485;SDS011;13449;49.374;8.584;2024-02-21T01:19:29;17.05;;;3.50;;
24485;SDS011;13449;49.374;8.584;2024-02-21T01:21:56;10.38;;;2.95;;
24485;SDS011;13449;49.374;8.584;2024-02-21T01:24:25;13.23;;;3.47;;
24485;SDS011;13449;49.374;8.584;2024-02-21T01:26:51;10.23;;;2.70;;
24485;SDS011;13449;49.374;8.584;2024-02-21T01:29:18;8.15;;;3.28;;
24485;SDS011;13449;49.374;8.584;2024-02-21T01:31:44;15.32;;;3.42;;
24485;SDS011;13449;49.374;8.584;2024-02-21T01:34:11;16.10;;;3.65;;
24485;SDS011;13449;49.374;8.584;2024-02-21T01:36:37;12.73;;;3.53;;
24485;SDS011;13449;49.374;8.584;2024-02-21T01:39:04;7.70;;;2.90;;
24485;SDS011;13449;49.374;8.584;2024-02-21T01:41:34;21.35;;;3.50;;
24485;SDS011;13449;49.374;8.584;2024-02-21T01:44:03;14.75;;;5.00;;
24485;SDS011;13449;49.374;8.584;2024-02-21T01:46:29;13.63;;;3.80;;
24485;SDS011;13449;49.374;8.584;2024-02-21T01:48:57;15.10;;;3.80;;
24485;SDS011;13449;49.374;8.584;2024-02-21T01:51:24;19.25;;;4.38;;
24485;SDS011;13449;49.374;8.584;2024-02-21T01:53:51;23.75;;;4.35;;
24485;SDS011;13449;49.374;8.584;2024-02-21T01:56:21;11.73;;;3.47;;
24485;SDS011;13449;49.374;8.584;2024-02-21T01:58:48;11.85;;;3.75;;
24485;SDS011;13449;49.374;8.584;2024-02-21T02:01:16;18.67;;;4.28;;
24485;SDS011;13449;49.374;8.584;2024-02-21T02:03:47;14.85;;;4.18;;
24485;SDS011;13449;49.374;8.584;2024-02-21T02:06:14;9.32;;;2.88;;
24485;SDS011;13449;49.374;8.584;2024-02-21T02:08:41;14.75;;;3.22;;
24485;SDS011;13449;49.374;8.584;2024-02-21T02:11:13;17.60;;;3.42;;
24485;SDS011;13449;49.374;8.584;2024-02-21T02:13:41;10.18;;;3.72;;
24485;SDS011;13449;49.374;8.584;2024-02-21T02:16:07;17.83;;;3.92;;
24485;SDS011;13449;49.374;8.584;2024-02-21T02:18:34;13.18;;;3.20;;
24485;SDS011;13449;49.374;8.584;2024-02-21T02:21:03;14.40;;;3.65;;
24485;SDS011;13449;49.374;8.584;2024-02-21T02:23:36;14.88;;;3.22;;
24485;SDS011;13449;49.374;8.584;2024-02-21T02:26:03;8.82;;;3.03;;
24485;SDS011;13449;49.374;8.584;2024-02-21T02:28:29;7.60;;;3.22;;
24485;SDS011;13449;49.374;8.584;2024-02-21T02:30:56;10.38;;;2.88;;
24485;SDS011;13449;49.374;8.584;2024-02-21T02:33:25;12.15;;;3.75;;
24485;SDS011;13449;49.374;8.584;2024-02-21T02:35:52;21.13;;;3.88;;
24485;SDS011;13449;49.374;8.584;2024-02-21T02:38:18;5.20;;;2.83;;
24485;SDS011;13449;49.374;8.584;2024-02-21T02:40:45;12.68;;;3.20;;
24485;SDS011;13449;49.374;8.584;2024-02-21T02:43:12;13.55;;;4.93;;
24485;SDS011;13449;49.374;8.584;2024-02-21T02:45:39;18.63;;;4.18;;
24485;SDS011;13449;49.374;8.584;2024-02-21T02:48:05;13.85;;;4.32;;
24485;SDS011;13449;49.374;8.584;2024-02-21T02:50:35;14.68;;;3.35;;
24485;SDS011;13449;49.374;8.584;2024-02-21T02:53:02;10.60;;;3.67;;
24485;SDS011;13449;49.374;8.584;2024-02-21T02:55:28;13.57;;;3.80;;
24485;SDS011;13449;49.374;8.584;2024-02-21T02:57:55;12.05;;;4.05;;
24485;SDS011;13449;49.374;8.584;2024-02-21T03:00:22;11.52;;;3.25;;
24485;SDS011;13449;49.374;8.584;2024-02-21T03:02:49;11.90;;;3.63;;
24485;SDS011;13449;49.374;8.584;2024-02-21T03:05:17;13.43;;;3.45;;
24485;SDS011;13449;49.374;8.584;2024-02-21T03:07:48;14.32;;;3.80;;
24485;SDS011;13449;49.374;8.584;2024-02-21T03:10:18;7.93;;;3.33;;
24485;SDS011;13449;49.374;8.584;2024-02-21T03:12:45;11.57;;;2.90;;
24485;SDS011;13449;49.374;8.584;2024-02-21T03:15:12;22.33;;;4.15;;
24485;SDS011;13449;49.374;8.584;2024-02-21T03:17:40;12.73;;;3.13;;
24485;SDS011;13449;49.374;8.584;2024-02-21T03:20:08;16.85;;;3.83;;
24485;SDS011;13449;49.374;8.584;2024-02-21T03:22:38;11.05;;;3.30;;
24485;SDS011;13449;49.374;8.584;2024-02-21T03:25:07;6.85;;;3.35;;
24485;SDS011;13449;49.374;8.584;2024-02-21T03:27:35;15.35;;;3.90;;
24485;SDS011;13449;49.374;8.584;2024-02-21T03:30:02;14.48;;;4.25;;
24485;SDS011;13449;49.374;8.584;2024-02-21T03:32:33;21.80;;;3.72;;
24485;SDS011;13449;49.374;8.584;2024-02-21T03:34:59;13.10;;;4.00;;
24485;SDS011;13449;49.374;8.584;2024-02-21T03:37:28;15.80;;;4.18;;
24485;SDS011;13449;49.374;8.584;2024-02-21T03:39:55;6.78;;;3.10;;
24485;SDS011;13449;49.374;8.584;2024-02-21T03:42:21;17.70;;;3.47;;
24485;SDS011;13449;49.374;8.584;2024-02-21T03:44:48;13.65;;;3.50;;
24485;SDS011;13449;49.374;8.584;2024-02-21T03:47:17;18.48;;;4.05;;
24485;SDS011;13449;49.374;8.584;2024-02-21T03:49:44;13.55;;;3.97;;
24485;SDS011;13449;49.374;8.584;2024-02-21T03:52:10;15.52;;;3.88;;
24485;SDS011;13449;49.374;8.584;2024-02-21T03:54:37;10.63;;;2.92;;
24485;SDS011;13449;49.374;8.584;2024-02-21T03:57:04;9.27;;;3.38;;
24485;SDS011;13449;49.374;8.584;2024-02-21T03:59:31;12.07;;;3.15;;
24485;SDS011;13449;49.374;8.584;2024-02-21T04:01:58;14.07;;;3.80;;
24485;SDS011;13449;49.374;8.584;2024-02-21T04:04:25;8.40;;;2.75;;
24485;SDS011;13449;49.374;8.584;2024-02-21T04:06:52;14.32;;;3.50;;
24485;SDS011;13449;49.374;8.584;2024-02-21T04:09:18;9.52;;;3.08;;
24485;SDS011;13449;49.374;8.584;2024-02-21T04:11:45;14.60;;;3.70;;
24485;SDS011;13449;49.374;8.584;2024-02-21T04:14:12;13.45;;;3.00;;
24485;SDS011;13449;49.374;8.584;2024-02-21T04:16:39;12.90;;;3.17;;
24485;SDS011;13449;49.374;8.584;2024-02-21T04:19:06;7.53;;;2.55;;
24485;SDS011;13449;49.374;8.584;2024-02-21T04:21:34;12.13;;;2.85;;
24485;SDS011;13449;49.374;8.584;2024-02-21T04:24:01;9.13;;;2.83;;
24485;SDS011;13449;49.374;8.584;2024-02-21T04:26:28;20.35;;;3.20;;
24485;SDS011;13449;49.374;8.584;2024-02-21T04:28:57;9.27;;;3.05;;
24485;SDS011;13449;49.374;8.584;2024-02-21T04:31:24;6.18;;;3.08;;
24485;SDS011;13449;49.374;8.584;2024-02-21T04:33:51;11.60;;;2.22;;
24485;SDS011;13449;49.374;8.584;2024-02-21T04:36:17;15.30;;;2.90;;
24485;SDS011;13449;49.374;8.584;2024-02-21T04:38:44;10.82;;;2.97;;
24485;SDS011;13449;49.374;8.584;2024-02-21T04:41:11;10.80;;;3.03;;
24485;SDS011;13449;49.374;8.584;2024-02-21T04:43:38;8.95;;;2.63;;
24485;SDS011;13449;49.374;8.584;2024-02-21T04:46:04;6.63;;;3.08;;
24485;SDS011;13449;49.374;8.584;2024-02-21T04:48:31;6.35;;;2.50;;
24485;SDS011;13449;49.374;8.584;2024-02-21T04:50:58;6.55;;;2.92;;
24485;SDS011;13449;49.374;8.584;2024-02-21T04:53:24;11.80;;;3.58;;
24485;SDS011;13449;49.374;8.584;2024-02-21T04:55:51;10.27;;;3.20;;
24485;SDS011;13449;49.374;8.584;2024-02-21T04:58:17;10.15;;;2.75;;
24485;SDS011;13449;49.374;8.584;2024-02-21T05:00:44;7.55;;;2.97;;
24485;SDS011;13449;49.374;8.584;2024-02-21T05:03:10;11.90;;;3.47;;
24485;SDS011;13449;49.374;8.584;2024-02-21T05:05:37;12.00;;;3.42;;
24485;SDS011;13449;49.374;8.584;2024-02-21T05:08:07;10.68;;;3.58;;
24485;SDS011;13449;49.374;8.584;2024-02-21T05:10:34;11.60;;;3.28;;
24485;SDS011;13449;49.374;8.584;2024-02-21T05:13:00;10.13;;;3.95;;
24485;SDS011;13449;49.374;8.584;2024-02-21T05:15:27;11.13;;;3.25;;
24485;SDS011;13449;49.374;8.584;2024-02-21T05:17:54;15.95;;;3.55;;
24485;SDS011;13449;49.374;8.584;2024-02-21T05:20:20;12.65;;;3.42;;
24485;SDS011;13449;49.374;8.584;2024-02-21T05:22:47;11.95;;;3.10;;
24485;SDS011;13449;49.374;8.584;2024-02-21T05:25:14;5.80;;;2.53;;
24485;SDS011;13449;49.374;8.584;2024-02-21T05:27:43;7.25;;;3.17;;
24485;SDS011;13449;49.374;8.584;2024-02-21T05:30:10;14.50;;;4.03;;
24485;SDS011;13449;49.374;8.584;2024-02-21T05:32:37;14.35;;;2.88;;
24485;SDS011;13449;49.374;8.584;2024-02-21T05:35:03;11.15;;;3.05;;
24485;SDS011;13449;49.374;8.584;2024-02-21T05:37:33;16.90;;;3.58;;
24485;SDS011;13449;49.374;8.584;2024-02-21T05:39:59;13.48;;;3.67;;
24485;SDS011;13449;49.374;8.584;2024-02-21T05:42:26;6.18;;;3.53;;
24485;SDS011;13449;49.374;8.584;2024-02-21T05:44:52;12.38;;;3.95;;
24485;SDS011;13449;49.374;8.584;2024-02-21T05:47:21;17.52;;;3.92;;
24485;SDS011;13449;49.374;8.584;2024-02-21T05:49:47;7.45;;;3.25;;
24485;SDS011;13449;49.374;8.584;2024-02-21T05:52:14;17.40;;;4.10;;
24485;SDS011;13449;49.374;8.584;2024-02-21T05:54:43;12.00;;;4.18;;
24485;SDS011;13449;49.374;8.584;2024-02-21T05:57:11;16.17;;;5.32;;
24485;SDS011;13449;49.374;8.584;2024-02-21T05:59:38;16.33;;;4.68;;
24485;SDS011;13449;49.374;8.584;2024-02-21T06:02:06;8.68;;;4.05;;
24485;SDS011;13449;49.374;8.584;2024-02-21T06:04:33;17.40;;;5.10;;
24485;SDS011;13449;49.374;8.584;2024-02-21T06:07:00;12.27;;;3.35;;
24485;SDS011;13449;49.374;8.584;2024-02-21T06:09:27;13.77;;;4.10;;
24485;SDS011;13449;49.374;8.584;2024-02-21T06:11:54;18.15;;;3.80;;
24485;SDS011;13449;49.374;8.584;2024-02-21T06:14:21;15.65;;;4.53;;
24485;SDS011;13449;49.374;8.584;2024-02-21T06:16:47;14.90;;;5.53;;
24485;SDS011;13449;49.374;8.584;2024-02-21T06:19:14;10.30;;;4.82;;
24485;SDS011;13449;49.374;8.584;2024-02-21T06:21:43;17.52;;;5.50;;
24485;SDS011;13449;49.374;8.584;2024-02-21T06:24:10;20.20;;;5.10;;
24485;SDS011;13449;49.374;8.584;2024-02-21T06:26:39;10.30;;;4.82;;
24485;SDS011;13449;49.374;8.584;2024-02-21T06:31:40;22.60;;;5.72;;
24485;SDS011;13449;49.374;8.584;2024-02-21T06:34:06;21.50;;;6.22;;
24485;SDS011;13449;49.374;8.584;2024-02-21T06:36:33;14.15;;;6.18;;
24485;SDS011;13449;49.374;8.584;2024-02-21T06:39:00;17.60;;;6.03;;
24485;SDS011;13449;49.374;8.584;2024-02-21T06:41:26;8.30;;;4.65;;
24485;SDS011;13449;49.374;8.584;2024-02-21T06:43:53;18.65;;;5.65;;
24485;SDS011;13449;49.374;8.584;2024-02-21T06:46:25;12.55;;;3.85;;
24485;SDS011;13449;49.374;8.584;2024-02-21T06:48:53;17.60;;;4.25;;
24485;SDS011;13449;49.374;8.584;2024-02-21T06:51:20;13.75;;;4.95;;
24485;SDS011;13449;49.374;8.584;2024-02-21T06:53:46;6.43;;;3.65;;
24485;SDS011;13449;49.374;8.584;2024-02-21T06:56:13;15.13;;;4.95;;
24485;SDS011;13449;49.374;8.584;2024-02-21T06:58:40;12.48;;;4.75;;
24485;SDS011;13449;49.374;8.584;2024-02-21T07:01:06;12.10;;;4.50;;
24485;SDS011;13449;49.374;8.584;2024-02-21T07:03:33;15.85;;;5.45;;
24485;SDS011;13449;49.374;8.584;2024-02-21T07:06:00;18.30;;;5.53;;
24485;SDS011;13449;49.374;8.584;2024-02-21T07:08:29;17.33;;;4.43;;
24485;SDS011;13449;49.374;8.584;2024-02-21T07:10:56;11.23;;;3.65;;
24485;SDS011;13449;49.374;8.584;2024-02-21T07:13:25;13.30;;;4.18;;
24485;SDS011;13449;49.374;8.584;2024-02-21T07:15:52;14.20;;;4.25;;
24485;SDS011;13449;49.374;8.584;2024-02-21T07:18:18;13.80;;;4.55;;
24485;SDS011;13449;49.374;8.584;2024-02-21T07:20:46;15.35;;;4.22;;
24485;SDS011;13449;49.374;8.584;2024-02-21T07:23:13;10.32;;;3.17;;
24485;SDS011;13449;49.374;8.584;2024-02-21T07:25:39;6.22;;;3.08;;
24485;SDS011;13449;49.374;8.584;2024-02-21T07:28:06;14.55;;;2.92;;
24485;SDS011;13449;49.374;8.584;2024-02-21T07:30:35;7.85;;;2.95;;
24485;SDS011;13449;49.374;8.584;2024-02-21T07:33:02;4.82;;;3.03;;
24485;SDS011;13449;49.374;8.584;2024-02-21T07:35:29;14.07;;;3.63;;
24485;SDS011;13449;49.374;8.584;2024-02-21T07:37:56;14.73;;;3.50;;
24485;SDS011;13449;49.374;8.584;2024-02-21T07:40:23;9.60;;;3.65;;
24485;SDS011;13449;49.374;8.584;2024-02-21T07:42:49;17.35;;;3.78;;
24485;SDS011;13449;49.374;8.584;2024-02-21T07:45:18;18.38;;;4.07;;
24485;SDS011;13449;49.374;8.584;2024-02-21T07:47:48;15.05;;;3.47;;
24485;SDS011;13449;49.374;8.584;2024-02-21T07:50:14;7.40;;;3.63;;
24485;SDS011;13449;49.374;8.584;2024-02-21T07:52:41;22.77;;;4.78;;
24485;SDS011;13449;49.374;8.584;2024-02-21T07:55:08;16.17;;;4.57;;
24485;SDS011;13449;49.374;8.584;2024-02-21T07:57:36;13.05;;;3.65;;
24485;SDS011;13449;49.374;8.584;2024-02-21T08:00:03;14.55;;;4.38;;
24485;SDS011;13449;49.374;8.584;2024-02-21T08:02:31;15.25;;;4.32;;
24485;SDS011;13449;49.374;8.584;2024-02-21T08:04:57;14.65;;;4.10;;
24485;SDS011;13449;49.374;8.584;2024-02-21T08:07:24;13.90;;;4.20;;
24485;SDS011;13449;49.374;8.584;2024-02-21T08:09:50;16.10;;;3.90;;
24485;SDS011;13449;49.374;8.584;2024-02-21T08:12:17;11.30;;;3.70;;
24485;SDS011;13449;49.374;8.584;2024-02-21T08:14:43;15.10;;;4.40;;
24485;SDS011;13449;49.374;8.584;2024-02-21T08:17:10;11.73;;;4.25;;
24485;SDS011;13449;49.374;8.584;2024-02-21T08:19:36;14.43;;;3.70;;
24485;SDS011;13449;49.374;8.584;2024-02-21T08:22:03;17.05;;;3.40;;
24485;SDS011;13449;49.374;8.584;2024-02-21T08:24:30;12.60;;;3.28;;
24485;SDS011;13449;49.374;8.584;2024-02-21T08:26:56;13.70;;;3.75;;
24485;SDS011;13449;49.374;8.584;2024-02-21T08:29:23;13.73;;;4.07;;
24485;SDS011;13449;49.374;8.584;2024-02-21T08:31:53;7.15;;;3.10;;
24485;SDS011;13449;49.374;8.584;2024-02-21T08:34:19;10.27;;;3.40;;
24485;SDS011;13449;49.374;8.584;2024-02-21T08:36:46;19.48;;;3.85;;
24485;SDS011;13449;49.374;8.584;2024-02-21T08:39:13;13.35;;;3.50;;
24485;SDS011;13449;49.374;8.584;2024-02-21T08:41:43;8.65;;;2.88;;
24485;SDS011;13449;49.374;8.584;2024-02-21T08:44:22;7.45;;;3.40;;
24485;SDS011;13449;49.374;8.584;2024-02-21T08:49:21;13.93;;;3.50;;
24485;SDS011;13449;49.374;8.584;2024-02-21T08:51:48;7.13;;;3.28;;
24485;SDS011;13449;49.374;8.584;2024-02-21T08:54:17;13.18;;;3.60;;
24485;SDS011;13449;49.374;8.584;2024-02-21T08:56:43;7.55;;;3.10;;
24485;SDS011;13449;49.374;8.584;2024-02-21T08:59:10;14.15;;;3.58;;
24485;SDS011;13449;49.374;8.584;2024-02-21T09:01:37;12.43;;;3.38;;
24485;SDS011;13449;49.374;8.584;2024-02-21T09:04:04;13.68;;;3.22;;
24485;SDS011;13449;49.374;8.584;2024-02-21T09:06:33;9.63;;;3.47;;
24485;SDS011;13449;49.374;8.584;2024-02-21T09:09:03;9.27;;;3.10;;
24485;SDS011;13449;49.374;8.584;2024-02-21T09:11:30;16.67;;;3.40;;
24485;SDS011;13449;49.374;8.584;2024-02-21T09:13:56;12.13;;;3.33;;
24485;SDS011;13449;49.374;8.584;2024-02-21T09:16:23;13.48;;;3.05;;
24485;SDS011;13449;49.374;8.584;2024-02-21T09:18:50;9.88;;;2.60;;
24485;SDS011;13449;49.374;8.584;2024-02-21T09:21:17;11.18;;;3.08;;
24485;SDS011;13449;49.374;8.584;2024-02-21T09:23:44;13.82;;;3.58;;
24485;SDS011;13449;49.374;8.584;2024-02-21T09:26:11;15.52;;;2.97;;
24485;SDS011;13449;49.374;8.584;2024-02-21T09:28:42;13.83;;;3.43;;
24485;SDS011;13449;49.374;8.584;2024-02-21T09:31:10;5.53;;;2.47;;
24485;SDS011;13449;49.374;8.584;2024-02-21T09:33:37;11.18;;;2.40;;
24485;SDS011;13449;49.374;8.584;2024-02-21T09:36:04;15.10;;;3.78;;
24485;SDS011;13449;49.374;8.584;2024-02-21T09:38:33;8.18;;;2.22;;
24485;SDS011;13449;49.374;8.584;2024-02-21T09:41:04;13.10;;;2.60;;
24485;SDS011;13449;49.374;8.584;2024-02-21T09:43:35;18.08;;;2.83;;
24485;SDS011;13449;49.374;8.584;2024-02-21T09:46:06;7.80;;;3.10;;
24485;SDS011;13449;49.374;8.584;2024-02-21T09:48:47;8.50;;;2.85;;
24485;SDS011;13449;49.374;8.584;2024-02-21T09:51:19;15.45;;;3.10;;
24485;SDS011;13449;49.374;8.584;2024-02-21T09:53:50;9.15;;;3.03;;
24485;SDS011;13449;49.374;8.584;2024-02-21T09:56:32;6.35;;;2.42;;
24485;SDS011;13449;49.374;8.584;2024-02-21T09:59:01;15.98;;;3.38;;
24485;SDS011;13449;49.374;8.584;2024-02-21T10:01:31;13.20;;;2.90;;
24485;SDS011;13449;49.374;8.584;2024-02-21T10:04:00;10.32;;;2.67;;
24485;SDS011;13449;49.374;8.584;2024-02-21T10:06:30;19.95;;;3.03;;
24485;SDS011;13449;49.374;8.584;2024-02-21T10:08:57;10.65;;;2.70;;
24485;SDS011;13449;49.374;8.584;2024-02-21T10:11:26;21.77;;;4.95;;
24485;SDS011;13449;49.374;8.584;2024-02-21T10:14:05;17.73;;;4.03;;
24485;SDS011;13449;49.374;8.584;2024-02-21T10:16:35;15.82;;;3.15;;
24485;SDS011;13449;49.374;8.584;2024-02-21T10:19:03;18.00;;;2.97;;
24485;SDS011;13449;49.374;8.584;2024-02-21T10:21:30;24.40;;;3.45;;
24485;SDS011;13449;49.374;8.584;2024-02-21T10:23:57;8.70;;;2.67;;
24485;SDS011;13449;49.374;8.584;2024-02-21T10:26:26;13.23;;;3.42;;
24485;SDS011;13449;49.374;8.584;2024-02-21T10:28:53;9.45;;;2.35;;
24485;SDS011;13449;49.374;8.584;2024-02-21T10:31:21;10.25;;;3.10;;
24485;SDS011;13449;49.374;8.584;2024-02-21T10:33:56;9.85;;;2.20;;
24485;SDS011;13449;49.374;8.584;2024-02-21T10:36:24;10.45;;;2.15;;
24485;SDS011;13449;49.374;8.584;2024-02-21T10:38:52;5.30;;;1.88;;
24485;SDS011;13449;49.374;8.584;2024-02-21T10:41:20;5.20;;;1.20;;
24485;SDS011;13449;49.374;8.584;2024-02-21T10:43:51;8.98;;;1.65;;
24485;SDS011;13449;49.374;8.584;2024-02-21T10:46:21;11.00;;;2.25;;
24485;SDS011;13449;49.374;8.584;2024-02-21T10:48:56;10.13;;;1.95;;
24485;SDS011;13449;49.374;8.584;2024-02-21T10:51:32;15.52;;;2.20;;
24485;SDS011;13449;49.374;8.584;2024-02-21T10:56:34;8.38;;;1.90;;
24485;SDS011;13449;49.374;8.584;2024-02-21T10:59:03;8.90;;;1.70;;
24485;SDS011;13449;49.374;8.584;2024-02-21T11:01:33;8.48;;;2.05;;
24485;SDS011;13449;49.374;8.584;2024-02-21T11:04:04;6.25;;;2.25;;
24485;SDS011;13449;49.374;8.584;2024-02-21T11:06:33;7.60;;;1.90;;
24485;SDS011;13449;49.374;8.584;2024-02-21T11:09:05;9.63;;;2.28;;
24485;SDS011;13449;49.374;8.584;2024-02-21T11:11:40;7.30;;;2.20;;
24485;SDS011;13449;49.374;8.584;2024-02-21T11:14:09;3.28;;;1.83;;
24485;SDS011;13449;49.374;8.584;2024-02-21T11:16:46;11.50;;;2.30;;
24485;SDS011;13449;49.374;8.584;2024-02-21T11:19:19;9.85;;;2.25;;
24485;SDS011;13449;49.374;8.584;2024-02-21T11:21:48;7.68;;;2.20;;
24485;SDS011;13449;49.374;8.584;2024-02-21T11:24:25;11.38;;;2.28;;
24485;SDS011;13449;49.374;8.584;2024-02-21T11:27:19;6.65;;;1.85;;
24485;SDS011;13449;49.374;8.584;2024-02-21T11:29:48;10.55;;;1.90;;
24485;SDS011;13449;49.374;8.584;2024-02-21T11:32:20;6.95;;;1.88;;
24485;SDS011;13449;49.374;8.584;2024-02-21T11:37:21;11.02;;;2.60;;
24485;SDS011;13449;49.374;8.584;2024-02-21T11:39:57;13.68;;;3.20;;
24485;SDS011;13449;49.374;8.584;2024-02-21T11:42:30;4.13;;;1.73;;
24485;SDS011;13449;49.374;8.584;2024-02-21T11:44:57;9.52;;;2.35;;
24485;SDS011;13449;49.374;8.584;2024-02-21T11:47:27;11.05;;;1.95;;
24485;SDS011;13449;49.374;8.584;2024-02-21T11:49:57;10.25;;;1.58;;
24485;SDS011;13449;49.374;8.584;2024-02-21T11:52:24;15.80;;;2.47;;
24485;SDS011;13449;49.374;8.584;2024-02-21T11:54:53;4.97;;;1.90;;
24485;SDS011;13449;49.374;8.584;2024-02-21T11:57:21;7.80;;;1.70;;
24485;SDS011;13449;49.374;8.584;2024-02-21T11:59:48;10.73;;;2.40;;
24485;SDS011;13449;49.374;8.584;2024-02-21T12:02:24;17.05;;;2.38;;
24485;SDS011;13449;49.374;8.584;2024-02-21T12:04:51;6.93;;;2.33;;
24485;SDS011;13449;49.374;8.584;2024-02-21T12:07:18;6.75;;;1.90;;
24485;SDS011;13449;49.374;8.584;2024-02-21T12:09:45;8.60;;;1.70;;
24485;SDS011;13449;49.374;8.584;2024-02-21T12:12:14;12.98;;;2.30;;
24485;SDS011;13449;49.374;8.584;2024-02-21T12:14:46;5.50;;;1.60;;
24485;SDS011;13449;49.374;8.584;2024-02-21T12:17:13;2.83;;;1.52;;
24485;SDS011;13449;49.374;8.584;2024-02-21T12:19:39;11.70;;;2.38;;
24485;SDS011;13449;49.374;8.584;2024-02-21T12:22:06;9.55;;;2.05;;
24485;SDS011;13449;49.374;8.584;2024-02-21T12:24:35;12.55;;;2.22;;
24485;SDS011;13449;49.374;8.584;2024-02-21T12:27:04;10.45;;;2.20;;
24485;SDS011;13449;49.374;8.584;2024-02-21T12:29:32;13.75;;;2.42;;
24485;SDS011;13449;49.374;8.584;2024-02-21T12:32:01;4.68;;;2.08;;
24485;SDS011;13449;49.374;8.584;2024-02-21T12:34:27;4.78;;;1.98;;
24485;SDS011;13449;49.374;8.584;2024-02-21T12:37:13;11.68;;;2.13;;
24485;SDS011;13449;49.374;8.584;2024-02-21T12:39:42;5.18;;;2.10;;
24485;SDS011;13449;49.374;8.584;2024-02-21T12:42:08;11.98;;;2.67;;
24485;SDS011;13449;49.374;8.584;2024-02-21T12:44:38;7.40;;;2.22;;
24485;SDS011;13449;49.374;8.584;2024-02-21T12:47:04;4.13;;;1.42;;
24485;SDS011;13449;49.374;8.584;2024-02-21T12:49:31;8.38;;;2.08;;
24485;SDS011;13449;49.374;8.584;2024-02-21T12:52:00;11.52;;;1.63;;
24485;SDS011;13449;49.374;8.584;2024-02-21T12:54:30;7.55;;;1.75;;
24485;SDS011;13449;49.374;8.584;2024-02-21T12:56:57;4.78;;;1.67;;
24485;SDS011;13449;49.374;8.584;2024-02-21T12:59:24;7.32;;;2.45;;
24485;SDS011;13449;49.374;8.584;2024-02-21T13:01:52;6.90;;;1.52;;
24485;SDS011;13449;49.374;8.584;2024-02-21T13:04:19;10.15;;;1.58;;
24485;SDS011;13449;49.374;8.584;2024-02-21T13:06:46;8.48;;;1.75;;
24485;SDS011;13449;49.374;8.584;2024-02-21T13:09:15;4.80;;;1.70;;
24485;SDS011;13449;49.374;8.584;2024-02-21T13:11:42;7.32;;;2.53;;
24485;SDS011;13449;49.374;8.584;2024-02-21T13:14:09;3.60;;;1.35;;
24485;SDS011;13449;49.374;8.584;2024-02-21T13:16:36;5.90;;;2.13;;
24485;SDS011;13449;49.374;8.584;2024-02-21T13:19:08;8.20;;;1.80;;
24485;SDS011;13449;49.374;8.584;2024-02-21T13:21:35;16.95;;;2.05;;
24485;SDS011;13449;49.374;8.584;2024-02-21T13:24:02;5.72;;;1.67;;
24485;SDS011;13449;49.374;8.584;2024-02-21T13:26:29;7.10;;;1.85;;
24485;SDS011;13449;49.374;8.584;2024-02-21T13:28:55;8.63;;;2.63;;
24485;SDS011;13449;49.374;8.584;2024-02-21T13:31:22;3.38;;;1.35;;
24485;SDS011;13449;49.374;8.584;2024-02-21T13:33:49;12.10;;;1.70;;
24485;SDS011;13449;49.374;8.584;2024-02-21T13:36:21;7.80;;;2.50;;
24485;SDS011;13449;49.374;8.584;2024-02-21T13:38:47;9.10;;;2.03;;
24485;SDS011;13449;49.374;8.584;2024-02-21T13:41:14;6.68;;;1.73;;
24485;SDS011;13449;49.374;8.584;2024-02-21T13:43:40;10.30;;;1.55;;
24485;SDS011;13449;49.374;8.584;2024-02-21T13:46:07;9.82;;;2.20;;
24485;SDS011;13449;49.374;8.584;2024-02-21T13:48:37;9.60;;;2.17;;
24485;SDS011;13449;49.374;8.584;2024-02-21T13:51:06;7.93;;;1.98;;
24485;SDS011;13449;49.374;8.584;2024-02-21T13:53:32;9.27;;;1.45;;
24485;SDS011;13449;49.374;8.584;2024-02-21T13:56:00;10.35;;;1.52;;
24485;SDS011;13449;49.374;8.584;2024-02-21T13:58:32;8.50;;;1.58;;
24485;SDS011;13449;49.374;8.584;2024-02-21T14:00:59;10.13;;;2.03;;
24485;SDS011;13449;49.374;8.584;2024-02-21T14:03:27;8.52;;;1.85;;
24485;SDS011;13449;49.374;8.584;2024-02-21T14:05:56;7.72;;;1.80;;
24485;SDS011;13449;49.374;8.584;2024-02-21T14:08:26;5.25;;;1.95;;
24485;SDS011;13449;49.374;8.584;2024-02-21T14:10:52;9.63;;;1.85;;
24485;SDS011;13449;49.374;8.584;2024-02-21T14:13:19;5.63;;;1.23;;
24485;SDS011;13449;49.374;8.584;2024-02-21T14:15:47;9.10;;;1.90;;
24485;SDS011;13449;49.374;8.584;2024-02-21T14:18:14;9.15;;;2.00;;
24485;SDS011;13449;49.374;8.584;2024-02-21T14:20:43;9.23;;;3.13;;
24485;SDS011;13449;49.374;8.584;2024-02-21T14:23:10;10.65;;;1.90;;
24485;SDS011;13449;49.374;8.584;2024-02-21T14:25:37;6.40;;;2.00;;
24485;SDS011;13449;49.374;8.584;2024-02-21T14:28:05;7.57;;;2.30;;
24485;SDS011;13449;49.374;8.584;2024-02-21T14:30:32;6.40;;;1.52;;
24485;SDS011;13449;49.374;8.584;2024-02-21T14:32:58;7.72;;;1.77;;
24485;SDS011;13449;49.374;8.584;2024-02-21T14:35:27;8.60;;;1.60;;
24485;SDS011;13449;49.374;8.584;2024-02-21T14:37:54;10.10;;;2.25;;
24485;SDS011;13449;49.374;8.584;2024-02-21T14:40:23;6.68;;;1.20;;
24485;SDS011;13449;49.374;8.584;2024-02-21T14:42:50;5.13;;;1.60;;
24485;SDS011;13449;49.374;8.584;2024-02-21T14:45:18;7.18;;;1.67;;
24485;SDS011;13449;49.374;8.584;2024-02-21T14:47:44;10.80;;;1.90;;
24485;SDS011;13449;49.374;8.584;2024-02-21T14:50:11;4.35;;;1.35;;
24485;SDS011;13449;49.374;8.584;2024-02-21T14:52:38;3.55;;;1.38;;